sensor_id;sensor_type;location;lat;lon;timestamp;temperature;humidity
75517;DHT22;64097;52.548;13.406;2023-05-16T06:04:09;18.30;54.20
75517;DHT22;64097;52.548;13.406;2023-05-16T06:06:36;18.30;54.10
75517;DHT22;64097;52.548;13.406;2023-05-16T06:09:02;18.40;54.10
75517;DHT22;64097;52.548;13.406;2023-05-16T06:11:28;18.30;54.00
75517;DHT22;64097;52.548;13.406;2023-05-16T06:13:53;18.40;53.80
75517;DHT22;64097;52.548;13.406;2023-05-16T06:16:23;18.40;53.80
75517;DHT22;64097;52.548;13.406;2023-05-16T06:18:49;18.40;53.60
75517;DHT22;64097;52.548;13.406;2023-05-16T06:21:15;18.40;53.50
75517;DHT22;64097;52.548;13.406;2023-05-16T06:23:41;18.40;53.20
75517;DHT22;64097;52.548;13.406;2023-05-16T06:26:07;18.40;53.20
75517;DHT22;64097;52.548;13.406;2023-05-16T06:28:32;18.40;53.20
75517;DHT22;64097;52.548;13.406;2023-05-16T06:30:59;18.40;53.20
75517;DHT22;64097;52.548;13.406;2023-05-16T06:33:24;18.40;53.20
75517;DHT22;64097;52.548;13.406;2023-05-16T06:36:00;18.50;53.20
75517;DHT22;64097;52.548;13.406;2023-05-16T06:38:26;18.50;53.20
75517;DHT22;64097;52.548;13.406;2023-05-16T06:40:51;18.50;53.00
75517;DHT22;64097;52.548;13.406;2023-05-16T06:43:18;18.50;52.90
75517;DHT22;64097;52.548;13.406;2023-05-16T06:45:43;18.60;52.80
75517;DHT22;64097;52.548;13.406;2023-05-16T06:48:12;18.50;52.80
75517;DHT22;64097;52.548;13.406;2023-05-16T06:50:39;18.50;52.70
75517;DHT22;64097;52.548;13.406;2023-05-16T06:53:05;18.60;52.70
75517;DHT22;64097;52.548;13.406;2023-05-16T06:55:34;18.60;52.70
75517;DHT22;64097;52.548;13.406;2023-05-16T06:58:00;18.60;52.60
75517;DHT22;64097;52.548;13.406;2023-05-16T07:00:26;18.60;52.60
75517;DHT22;64097;52.548;13.406;2023-05-16T07:02:52;18.60;52.60
75517;DHT22;64097;52.548;13.406;2023-05-16T07:05:17;18.60;52.60
75517;DHT22;64097;52.548;13.406;2023-05-16T07:07:43;18.60;52.60
75517;DHT22;64097;52.548;13.406;2023-05-16T07:10:10;18.60;52.60
75517;DHT22;64097;52.548;13.406;2023-05-16T07:12:35;18.60;52.50
75517;DHT22;64097;52.548;13.406;2023-05-16T07:15:05;18.60;52.40
75517;DHT22;64097;52.548;13.406;2023-05-16T07:17:31;18.60;52.40
75517;DHT22;64097;52.548;13.406;2023-05-16T07:19:56;18.70;52.40
75517;DHT22;64097;52.548;13.406;2023-05-16T07:22:22;18.70;52.40
75517;DHT22;64097;52.548;13.406;2023-05-16T07:24:48;18.60;52.30
75517;DHT22;64097;52.548;13.406;2023-05-16T07:27:14;18.70;52.30
75517;DHT22;64097;52.548;13.406;2023-05-16T07:29:40;18.70;52.30
75517;DHT22;64097;52.548;13.406;2023-05-16T07:32:06;18.70;52.20
75517;DHT22;64097;52.548;13.406;2023-05-16T07:34:32;18.70;52.10
75517;DHT22;64097;52.548;13.406;2023-05-16T07:36:58;18.80;52.10
75517;DHT22;64097;52.548;13.406;2023-05-16T07:39:24;18.80;52.00
75517;DHT22;64097;52.548;13.406;2023-05-16T07:41:49;18.80;51.90
75517;DHT22;64097;52.548;13.406;2023-05-16T07:44:15;18.80;51.80
75517;DHT22;64097;52.548;13.406;2023-05-16T07:46:41;18.90;51.60
75517;DHT22;64097;52.548;13.406;2023-05-16T07:49:09;18.90;51.40
75517;DHT22;64097;52.548;13.406;2023-05-16T07:51:35;19.00;51.30
75517;DHT22;64097;52.548;13.406;2023-05-16T07:54:01;19.00;51.20
75517;DHT22;64097;52.548;13.406;2023-05-16T07:56:27;19.00;51.10
75517;DHT22;64097;52.548;13.406;2023-05-16T07:58:53;19.00;51.00
75517;DHT22;64097;52.548;13.406;2023-05-16T08:01:20;19.10;50.70
75517;DHT22;64097;52.548;13.406;2023-05-16T08:03:45;19.10;50.50
75517;DHT22;64097;52.548;13.406;2023-05-16T08:06:11;19.00;50.40
75517;DHT22;64097;52.548;13.406;2023-05-16T08:08:37;19.00;50.50
75517;DHT22;64097;52.548;13.406;2023-05-16T08:11:04;19.00;50.40
75517;DHT22;64097;52.548;13.406;2023-05-16T08:13:30;19.00;50.40
75517;DHT22;64097;52.548;13.406;2023-05-16T08:15:56;19.00;50.50
75517;DHT22;64097;52.548;13.406;2023-05-16T08:18:21;18.90;50.50
75517;DHT22;64097;52.548;13.406;2023-05-16T08:20:47;18.90;51.30
75517;DHT22;64097;52.548;13.406;2023-05-16T08:23:13;18.90;50.50
75517;DHT22;64097;52.548;13.406;2023-05-16T08:25:39;18.90;50.50
75517;DHT22;64097;52.548;13.406;2023-05-16T08:28:06;19.00;50.60
75517;DHT22;64097;52.548;13.406;2023-05-16T08:30:32;18.90;50.60
75517;DHT22;64097;52.548;13.406;2023-05-16T08:32:57;18.90;50.60
75517;DHT22;64097;52.548;13.406;2023-05-16T08:35:23;18.90;50.40
75517;DHT22;64097;52.548;13.406;2023-05-16T08:37:49;18.80;50.50
75517;DHT22;64097;52.548;13.406;2023-05-16T08:40:15;18.80;50.60
75517;DHT22;64097;52.548;13.406;2023-05-16T08:42:41;18.80;50.80
75517;DHT22;64097;52.548;13.406;2023-05-16T08:45:07;18.80;50.80
75517;DHT22;64097;52.548;13.406;2023-05-16T08:47:33;18.80;50.70
75517;DHT22;64097;52.548;13.406;2023-05-16T08:50:02;18.80;50.60
75517;DHT22;64097;52.548;13.406;2023-05-16T08:52:30;18.90;50.40
75517;DHT22;64097;52.548;13.406;2023-05-16T08:55:00;18.80;50.30
75517;DHT22;64097;52.548;13.406;2023-05-16T08:57:27;18.90;50.20
75517;DHT22;64097;52.548;13.406;2023-05-16T08:59:55;18.90;50.10
75517;DHT22;64097;52.548;13.406;2023-05-16T09:02:21;18.90;50.10
75517;DHT22;64097;52.548;13.406;2023-05-16T09:04:48;18.90;50.10
75517;DHT22;64097;52.548;13.406;2023-05-16T09:07:14;18.90;50.00
75517;DHT22;64097;52.548;13.406;2023-05-16T09:09:41;18.90;49.90
75517;DHT22;64097;52.548;13.406;2023-05-16T09:12:07;18.90;49.90
75517;DHT22;64097;52.548;13.406;2023-05-16T09:14:33;19.00;49.90
75517;DHT22;64097;52.548;13.406;2023-05-16T09:17:04;19.00;49.80
75517;DHT22;64097;52.548;13.406;2023-05-16T09:19:40;19.00;49.70
75517;DHT22;64097;52.548;13.406;2023-05-16T09:22:14;19.00;49.70
75517;DHT22;64097;52.548;13.406;2023-05-16T09:24:41;19.10;49.60
75517;DHT22;64097;52.548;13.406;2023-05-16T09:27:08;19.10;49.50
75517;DHT22;64097;52.548;13.406;2023-05-16T09:29:34;19.10;49.50
75517;DHT22;64097;52.548;13.406;2023-05-16T09:34:45;19.10;49.40
75517;DHT22;64097;52.548;13.406;2023-05-16T09:37:13;19.10;49.40
75517;DHT22;64097;52.548;13.406;2023-05-16T09:39:48;19.00;49.10
75517;DHT22;64097;52.548;13.406;2023-05-16T09:42:18;19.00;48.90
75517;DHT22;64097;52.548;13.406;2023-05-16T09:44:49;19.00;49.00
75517;DHT22;64097;52.548;13.406;2023-05-16T09:47:16;19.00;49.10
75517;DHT22;64097;52.548;13.406;2023-05-16T09:49:47;19.10;48.90
75517;DHT22;64097;52.548;13.406;2023-05-16T09:52:16;19.10;48.70
75517;DHT22;64097;52.548;13.406;2023-05-16T09:54:42;19.10;48.60
75517;DHT22;64097;52.548;13.406;2023-05-16T09:57:08;19.10;48.50
75517;DHT22;64097;52.548;13.406;2023-05-16T09:59:36;19.20;48.50
75517;DHT22;64097;52.548;13.406;2023-05-16T10:02:02;19.20;48.30
75517;DHT22;64097;52.548;13.406;2023-05-16T10:04:30;19.10;48.10
75517;DHT22;64097;52.548;13.406;2023-05-16T10:06:56;19.20;48.30
75517;DHT22;64097;52.548;13.406;2023-05-16T10:09:22;19.20;48.40
75517;DHT22;64097;52.548;13.406;2023-05-16T10:11:50;19.20;48.40
75517;DHT22;64097;52.548;13.406;2023-05-16T10:14:17;19.20;48.50
75517;DHT22;64097;52.548;13.406;2023-05-16T10:16:46;19.20;48.50
75517;DHT22;64097;52.548;13.406;2023-05-16T10:19:20;19.30;48.60
75517;DHT22;64097;52.548;13.406;2023-05-16T10:21:52;19.30;48.60
75517;DHT22;64097;52.548;13.406;2023-05-16T10:24:28;19.20;48.50
75517;DHT22;64097;52.548;13.406;2023-05-16T10:26:55;19.20;48.60
75517;DHT22;64097;52.548;13.406;2023-05-16T10:29:22;19.20;48.70
75517;DHT22;64097;52.548;13.406;2023-05-16T10:31:50;19.30;48.80
75517;DHT22;64097;52.548;13.406;2023-05-16T10:34:17;19.30;48.90
75517;DHT22;64097;52.548;13.406;2023-05-16T10:36:44;19.30;48.80
75517;DHT22;64097;52.548;13.406;2023-05-16T10:39:11;19.30;48.90
75517;DHT22;64097;52.548;13.406;2023-05-16T10:41:38;19.30;48.90
75517;DHT22;64097;52.548;13.406;2023-05-16T10:44:12;19.30;48.90
75517;DHT22;64097;52.548;13.406;2023-05-16T10:46:39;19.30;48.80
75517;DHT22;64097;52.548;13.406;2023-05-16T10:49:26;19.40;48.90
75517;DHT22;64097;52.548;13.406;2023-05-16T10:52:08;19.40;48.90
75517;DHT22;64097;52.548;13.406;2023-05-16T10:57:11;19.30;48.80
75517;DHT22;64097;52.548;13.406;2023-05-16T10:59:46;19.30;48.80
75517;DHT22;64097;52.548;13.406;2023-05-16T11:04:55;19.20;48.40
75517;DHT22;64097;52.548;13.406;2023-05-16T11:07:24;19.10;48.30
75517;DHT22;64097;52.548;13.406;2023-05-16T11:10:13;19.10;48.10
75517;DHT22;64097;52.548;13.406;2023-05-16T11:12:48;19.10;48.20
75517;DHT22;64097;52.548;13.406;2023-05-16T11:17:46;19.20;48.30
75517;DHT22;64097;52.548;13.406;2023-05-16T11:20:35;19.30;47.80
75517;DHT22;64097;52.548;13.406;2023-05-16T11:23:18;19.30;47.60
75517;DHT22;64097;52.548;13.406;2023-05-16T11:25:50;19.40;47.40
75517;DHT22;64097;52.548;13.406;2023-05-16T11:28:17;19.50;47.30
75517;DHT22;64097;52.548;13.406;2023-05-16T11:30:57;19.50;47.10
75517;DHT22;64097;52.548;13.406;2023-05-16T11:33:24;19.60;46.80
75517;DHT22;64097;52.548;13.406;2023-05-16T11:36:06;19.60;46.90
75517;DHT22;64097;52.548;13.406;2023-05-16T11:38:33;19.70;46.80
75517;DHT22;64097;52.548;13.406;2023-05-16T11:41:05;19.70;46.60
75517;DHT22;64097;52.548;13.406;2023-05-16T11:43:40;19.70;46.40
75517;DHT22;64097;52.548;13.406;2023-05-16T11:46:10;19.70;46.00
75517;DHT22;64097;52.548;13.406;2023-05-16T11:48:36;19.70;45.80
75517;DHT22;64097;52.548;13.406;2023-05-16T11:51:02;19.70;45.60
75517;DHT22;64097;52.548;13.406;2023-05-16T11:53:28;19.70;45.50
75517;DHT22;64097;52.548;13.406;2023-05-16T11:55:54;19.80;45.40
75517;DHT22;64097;52.548;13.406;2023-05-16T11:58:20;19.80;45.20
75517;DHT22;64097;52.548;13.406;2023-05-16T12:00:48;19.80;45.10
75517;DHT22;64097;52.548;13.406;2023-05-16T12:03:14;19.80;44.90
75517;DHT22;64097;52.548;13.406;2023-05-16T12:05:49;19.80;44.60
75517;DHT22;64097;52.548;13.406;2023-05-16T12:08:16;19.80;45.00
75517;DHT22;64097;52.548;13.406;2023-05-16T12:10:42;19.80;44.80
75517;DHT22;64097;52.548;13.406;2023-05-16T12:13:07;19.80;44.80
75517;DHT22;64097;52.548;13.406;2023-05-16T12:15:33;19.70;44.90
75517;DHT22;64097;52.548;13.406;2023-05-16T12:17:59;19.70;45.00
75517;DHT22;64097;52.548;13.406;2023-05-16T12:20:25;19.70;45.40
75517;DHT22;64097;52.548;13.406;2023-05-16T12:22:51;19.70;45.40
75517;DHT22;64097;52.548;13.406;2023-05-16T12:25:28;19.70;45.30
75517;DHT22;64097;52.548;13.406;2023-05-16T12:27:58;19.80;45.00
75517;DHT22;64097;52.548;13.406;2023-05-16T12:30:26;19.90;45.00
75517;DHT22;64097;52.548;13.406;2023-05-16T12:33:02;19.90;44.80
75517;DHT22;64097;52.548;13.406;2023-05-16T12:35:30;20.00;44.70
75517;DHT22;64097;52.548;13.406;2023-05-16T12:37:56;20.10;45.10
75517;DHT22;64097;52.548;13.406;2023-05-16T12:40:22;20.20;43.60
75517;DHT22;64097;52.548;13.406;2023-05-16T12:42:52;20.30;43.90
75517;DHT22;64097;52.548;13.406;2023-05-16T12:45:18;20.40;43.70
75517;DHT22;64097;52.548;13.406;2023-05-16T12:47:44;20.40;43.10
75517;DHT22;64097;52.548;13.406;2023-05-16T12:50:12;20.50;43.00
75517;DHT22;64097;52.548;13.406;2023-05-16T12:52:49;20.50;42.70
75517;DHT22;64097;52.548;13.406;2023-05-16T12:55:16;20.50;42.80
75517;DHT22;64097;52.548;13.406;2023-05-16T12:57:43;20.60;42.50
75517;DHT22;64097;52.548;13.406;2023-05-16T13:00:11;20.60;42.40
75517;DHT22;64097;52.548;13.406;2023-05-16T13:02:37;20.60;41.80
75517;DHT22;64097;52.548;13.406;2023-05-16T13:05:04;20.70;41.70
75517;DHT22;64097;52.548;13.406;2023-05-16T13:07:32;20.70;41.60
75517;DHT22;64097;52.548;13.406;2023-05-16T13:09:57;20.70;41.60
75517;DHT22;64097;52.548;13.406;2023-05-16T13:12:23;20.70;41.60
75517;DHT22;64097;52.548;13.406;2023-05-16T13:14:52;20.80;41.30
75517;DHT22;64097;52.548;13.406;2023-05-16T13:17:18;20.80;40.90
75517;DHT22;64097;52.548;13.406;2023-05-16T13:19:43;20.80;40.50
75517;DHT22;64097;52.548;13.406;2023-05-16T13:22:09;20.80;39.90
75517;DHT22;64097;52.548;13.406;2023-05-16T13:24:35;20.80;40.50
75517;DHT22;64097;52.548;13.406;2023-05-16T13:27:01;20.90;39.80
75517;DHT22;64097;52.548;13.406;2023-05-16T13:29:27;20.80;39.30
75517;DHT22;64097;52.548;13.406;2023-05-16T13:31:52;20.80;39.10
75517;DHT22;64097;52.548;13.406;2023-05-16T13:34:18;20.70;39.90
75517;DHT22;64097;52.548;13.406;2023-05-16T13:36:44;20.70;39.30
75517;DHT22;64097;52.548;13.406;2023-05-16T13:39:12;20.60;39.40
75517;DHT22;64097;52.548;13.406;2023-05-16T13:41:38;20.60;39.40
75517;DHT22;64097;52.548;13.406;2023-05-16T13:44:05;20.60;39.20
75517;DHT22;64097;52.548;13.406;2023-05-16T13:46:32;20.60;38.50
75517;DHT22;64097;52.548;13.406;2023-05-16T13:48:57;20.60;38.80
75517;DHT22;64097;52.548;13.406;2023-05-16T13:51:23;20.50;38.80
75517;DHT22;64097;52.548;13.406;2023-05-16T13:53:49;20.50;38.80
75517;DHT22;64097;52.548;13.406;2023-05-16T13:56:15;20.50;38.70
75517;DHT22;64097;52.548;13.406;2023-05-16T13:58:41;20.50;38.50
